Santa Ysabel Ranch (220) Station Data

Red Flag Warning: No
Fire Weather Zone: 258
SDGE Region: Ramona
Lat/Lon: 33.132/-116.686

Observations

Time Wind Speed/Gust Temp(F) RH Fuel Moist Fuel Temp(F) Dewpt(F) Tmax(F) Tmin(F) Accum Precip 10-min Precip SL Press(mb)
6/22 4:50am 348 4 G 5 62° 40% - - 38° 68° 57.8° - - -
6/22 4:40am 353 5 G 6 60° 46% - - 39° 68° 57.8° - - -
6/22 4:30am 359 1 G 5 63° 40% - - 38° 68° 57.8° - - -
6/22 4:20am 306 2 G 5 62° 42% - - 39° 68° 57.8° - - -
6/22 4:10am 359 3 G 5 60° 48% - - 40° 68° 57.8° - - -
6/22 4:00am 346 3 G 4 59° 49% - - 40° 68° 57.8° - - -
6/22 3:50am 356 2 G 4 61° 46% - - 40° 68° 58.7° - - -
6/22 3:40am 353 4 G 5 60° 47% - - 40° 68° 58.7° - - -
6/22 3:30am 354 3 G 4 60° 49% - - 41° 68° 58.7° - - -
6/22 3:20am 0 4 G 6 62° 46% - - 41° 68° 58.7° - - -
6/22 3:10am 11 4 G 6 61° 49% - - 41° 68° 58.9° - - -
6/22 3:00am 347 2 G 5 62° 46% - - 40° 68° 59.1° - - -
6/22 2:50am 7 3 G 5 61° 49% - - 41° 68° 59.1° - - -
6/22 2:40am 350 4 G 5 65° 39% - - 40° 68° 60.4° - - -
6/22 2:30am 344 4 G 5 64° 42% - - 41° 68° 60.4° - - -
6/22 2:20am 347 4 G 5 63° 43% - - 41° 68° 60.4° - - -
6/22 2:10am 356 3 G 4 63° 45% - - 41° 68° 60.4° - - -
6/22 2:00am 356 4 G 4 64° 44% - - 41° 68° 60.4° - - -
6/22 1:50am 359 4 G 5 62° 49% - - 43° 68° 60.4° - - -
6/22 1:40am 349 4 G 5 64° 46% - - 43° 68° 61.7° - - -
6/22 1:30am 348 4 G 5 64° 47% - - 43° 68° 61.7° - - -
6/22 1:20am 347 1 G 3 64° 46% - - 43° 68° 61.7° - - -
6/22 1:10am 350 3 G 4 65° 45% - - 43° 68° 61.7° - - -
6/22 1:00am 341 4 G 5 65° 47% - - 44° 68° 61.7° - - -
6/22 12:50am 354 4 G 6 64° 50% - - 45° 68° 61.7° - - -
6/22 12:40am 350 3 G 5 64° 50% - - 45° 68° 61.8° - - -
6/22 12:30am 348 2 G 3 66° 45% - - 44° 68° 64.8° - - -
6/22 12:20am 352 3 G 4 67° 44% - - 44° 68° 66° - - -
6/22 12:10am 340 4 G 5 67° 44% - - 44° 67.8° 66.5° - - -
6/22 12:00am 342 4 G 5 66° 46% - - 45° 97.7° 57.3° - - -
6/21 11:50pm 346 5 G 6 64° 50% - - 45° 97.7° 57.3° - - -
6/21 11:40pm 353 5 G 6 65° 51% - - 47° 97.7° 57.3° - - -
6/21 11:30pm 342 3 G 5 68° 46% - - 46° 97.7° 57.3° - - -
6/21 11:20pm 339 2 G 4 68° 46% - - 47° 97.7° 57.3° - - -
6/21 11:10pm 345 2 G 4 67° 48% - - 46° 97.7° 57.3° - - -
6/21 11:00pm 342 4 G 5 67° 46% - - 45° 97.7° 57.3° - - -
6/21 10:50pm 353 4 G 5 66° 49% - - 47° 97.7° 57.3° - - -
6/21 10:40pm 345 4 G 4 69° 46% - - 47° 97.7° 57.3° - - -
6/21 10:30pm 347 5 G 5 69° 47% - - 48° 97.7° 57.3° - - -
6/21 10:20pm 352 3 G 5 66° 53% - - 48° 97.7° 57.3° - - -
6/21 10:10pm 350 4 G 6 69° 51% - - 50° 97.7° 57.3° - - -
6/21 10:00pm 346 4 G 5 69° 54% - - 52° 97.7° 57.3° - - -
6/21 9:50pm 346 5 G 6 71° 50% - - 51° 97.7° 57.3° - - -
6/21 9:40pm 342 6 G 7 72° 49% - - 52° 97.7° 57.3° - - -
6/21 9:30pm 346 6 G 7 72° 47% - - 51° 97.7° 57.3° - - -
6/21 9:20pm 336 4 G 7 74° 45% - - 51° 97.7° 57.3° - - -
6/21 9:10pm 336 6 G 6 73° 49% - - 53° 97.7° 57.3° - - -
6/21 9:00pm 339 5 G 6 74° 49% - - 54° 97.7° 57.3° - - -
6/21 8:50pm 345 5 G 6 74° 50% - - 54° 97.7° 57.3° - - -
6/21 8:40pm 354 5 G 5 75° 50% - - 55° 97.7° 57.3° - - -
6/21 8:30pm 345 5 G 7 76° 47% - - 55° 97.7° 57.3° - - -
6/21 8:20pm 342 6 G 7 76° 48% - - 55° 97.7° 57.3° - - -
6/21 8:10pm 347 3 G 6 77° 47% - - 55° 97.7° 57.3° - - -
6/21 8:00pm 336 1 G 2 80° 42% - - 55° 97.7° 57.3° - - -
6/21 7:50pm 186 1 G 2 81° 42% - - 56° 97.7° 57.3° - - -
6/21 7:40pm 134 0 G 2 81° 41% - - 56° 97.7° 57.3° - - -
6/21 7:30pm 225 2 G 4 83° 38% - - 55° 97.7° 57.3° - - -
6/21 7:20pm 242 4 G 5 85° 35% - - 54° 97.7° 57.3° - - -
6/21 7:10pm 248 3 G 4 86° 33% - - 54° 97.7° 57.3° - - -
6/21 7:00pm 231 4 G 6 87° 32% - - 53° 97.7° 57.3° - - -
6/21 6:50pm 224 4 G 6 87° 30% - - 53° 97.7° 57.3° - - -
6/21 6:40pm 231 4 G 6 88° 30% - - 52° 97.7° 57.3° - - -
6/21 6:30pm 230 5 G 7 88° 27% - - 50° 97.7° 57.3° - - -
6/21 6:20pm 239 5 G 9 88° 26% - - 49° 97.7° 57.3° - - -
6/21 6:10pm 231 6 G 9 88° 25% - - 49° 97.7° 57.3° - - -
6/21 6:00pm 228 7 G 10 89° 28% - - 51° 97.7° 57.3° - - -
6/21 5:50pm 226 6 G 9 89° 30% - - 53° 97.7° 57.3° - - -
6/21 5:40pm 235 6 G 11 89° 30% - - 54° 97.7° 57.3° - - -
6/21 5:30pm 247 6 G 9 90° 29% - - 53° 97.7° 57.3° - - -
6/21 5:20pm 242 7 G 12 91° 28% - - 53° 97.7° 57.3° - - -
6/21 5:10pm 228 7 G 10 91° 27% - - 52° 97.7° 57.3° - - -
6/21 5:00pm 224 6 G 9 92° 26% - - 52° 97.7° 57.3° - - -
6/21 4:50pm 235 7 G 11 92° 26% - - 52° 97.7° 57.3° - - -
6/21 4:40pm 237 7 G 11 92° 25% - - 52° 97.7° 57.3° - - -
6/21 4:30pm 235 7 G 12 92° 25% - - 52° 97.7° 57.3° - - -
6/21 4:20pm 247 6 G 12 93° 24% - - 50° 97.7° 57.3° - - -
6/21 4:10pm 248 7 G 11 93° 22% - - 49° 97.7° 57.3° - - -
6/21 4:00pm 237 7 G 10 94° 21% - - 48° 97.7° 57.3° - - -
6/21 3:50pm 253 7 G 10 94° 21% - - 48° 97.7° 57.3° - - -
6/21 3:40pm 255 7 G 11 95° 21% - - 49° 97.7° 57.3° - - -
6/21 3:30pm 229 7 G 12 94° 21% - - 48° 97.7° 57.3° - - -
6/21 3:20pm 229 8 G 14 95° 20% - - 47° 97.7° 57.3° - - -
6/21 3:10pm 238 8 G 13 95° 19% - - 46° 97.7° 57.3° - - -
6/21 3:00pm 239 7 G 12 95° 19% - - 46° 97.7° 57.3° - - -
6/21 2:50pm 241 8 G 13 95° 17% - - 44° 97.7° 57.3° - - -
6/21 2:40pm 246 8 G 13 95° 16% - - 43° 97.7° 57.3° - - -
6/21 2:30pm 261 7 G 12 96° 16% - - 42° 97.7° 57.3° - - -
6/21 2:20pm 259 7 G 14 96° 14% - - 40° 97.7° 57.3° - - -
6/21 2:10pm 240 7 G 14 96° 15% - - 40° 97.7° 57.3° - - -
6/21 2:00pm 232 9 G 14 96° 14% - - 39° 97.7° 57.3° - - -
6/21 1:50pm 241 8 G 13 96° 13% - - 37° 97.7° 57.3° - - -
6/21 1:40pm 239 8 G 13 96° 14% - - 40° 97.7° 57.3° - - -
6/21 1:30pm 231 9 G 14 96° 15% - - 41° 97.7° 57.3° - - -
6/21 1:20pm 252 8 G 14 96° 15% - - 41° 97.7° 57.3° - - -
6/21 1:10pm 259 7 G 12 96° 13% - - 38° 97.7° 57.3° - - -
6/21 1:00pm 247 7 G 12 96° 14% - - 39° 97.7° 57.3° - - -
6/21 12:50pm 242 8 G 11 96° 14% - - 39° 97.7° 57.3° - - -
6/21 12:40pm 256 7 G 16 96° 12% - - 36° 97.7° 57.3° - - -
6/21 12:30pm 240 8 G 14 96° 11% - - 34° 97.7° 57.3° - - -
6/21 12:20pm 240 6 G 12 97° 10% - - 32° 97.7° 57.3° - - -
6/21 12:10pm 231 7 G 14 97° 10% - - 32° 97.4° 57.3° - - -
6/21 12:00pm 230 6 G 12 96° 11% - - 34° 97.4° 57.3° - - -
6/21 11:50am 231 7 G 12 96° 12% - - 35° 97.4° 57.3° - - -
6/21 11:40am 230 6 G 11 96° 13% - - 37° 97.4° 57.3° - - -
6/21 11:30am 232 6 G 10 96° 11% - - 34° 96.6° 57.3° - - -
6/21 11:20am 220 6 G 9 96° 11% - - 34° 96.6° 57.3° - - -
6/21 11:10am 211 6 G 9 95° 13% - - 37° 96.6° 57.3° - - -
6/21 11:00am 224 4 G 8 96° 13% - - 36° 96.6° 57.3° - - -
6/21 10:50am 191 4 G 7 95° 10% - - 31° 96.1° 57.3° - - -
6/21 10:40am 205 4 G 8 95° 11% - - 33° 95.6° 57.3° - - -
6/21 10:30am 168 4 G 7 94° 14% - - 37° 94.9° 57.3° - - -
6/21 10:20am 150 4 G 8 93° 14% - - 38° 94.4° 57.3° - - -
6/21 10:10am 168 4 G 9 93° 15% - - 39° 94° 57.3° - - -
6/21 10:00am 149 4 G 9 93° 15% - - 38° 94° 57.3° - - -
6/21 9:50am 133 2 G 3 93° 14% - - 37° 94° 57.3° - - -
6/21 9:40am 167 2 G 4 92° 14% - - 36° 93.1° 57.3° - - -
6/21 9:30am 168 1 G 3 92° 14% - - 35° 92.7° 57.3° - - -
6/21 9:20am 138 2 G 3 91° 16% - - 38° 92.7° 57.3° - - -
6/21 9:10am 146 2 G 3 90° 16% - - 38° 92.7° 57.3° - - -
6/21 9:00am 67 1 G 3 91° 17% - - 40° 92.7° 57.3° - - -
6/21 8:50am 39 1 G 2 90° 19% - - 42° 90.6° 57.3° - - -
6/21 8:40am 44 1 G 2 87° 23% - - 45° 89.3° 57.3° - - -
6/21 8:30am 345 2 G 3 84° 25% - - 44° 85.6° 57.3° - - -
6/21 8:20am 25 1 G 3 84° 26% - - 46° 84.7° 57.3° - - -
6/21 8:10am 15 1 G 2 82° 30% - - 47° 83° 57.3° - - -
6/21 8:00am 17 0 G 1 79° 33% - - 48° 81.1° 57.3° - - -
6/21 7:50am 111 0 G 1 78° 35% - - 48° 79.3° 57.3° - - -
6/21 7:40am 43 0 G 1 75° 33% - - 44° 77.8° 57.3° - - -
6/21 7:30am 15 1 G 2 72° 44% - - 48° 73.3° 57.3° - - -
6/21 7:20am 338 1 G 2 70° 43% - - 47° 71.3° 57.3° - - -
6/21 7:10am 24 1 G 2 68° 45% - - 46° 69.8° 57.3° - - -
6/21 7:00am 21 2 G 3 66° 47% - - 45° 67.9° 57.3° - - -
6/21 6:50am 359 2 G 4 65° 43% - - 42° 67.9° 57.3° - - -
6/21 6:40am 360 2 G 3 65° 42% - - 41° 67.9° 57.3° - - -
6/21 6:30am 1 3 G 4 61° 45% - - 40° 67.9° 57.3° - - -
6/21 6:20am 352 4 G 5 62° 44% - - 40° 67.9° 57.3° - - -
6/21 6:10am 353 4 G 5 63° 43% - - 40° 67.9° 57.3° - - -
6/21 6:00am 352 4 G 5 60° 51% - - 42° 67.9° 57.3° - - -
6/21 5:50am 350 4 G 5 63° 46% - - 42° 67.9° 58.8° - - -
6/21 5:40am 358 4 G 6 61° 48% - - 42° 67.9° 58.8° - - -
6/21 5:30am 338 2 G 5 62° 49% - - 43° 67.9° 58.8° - - -
6/21 5:20am 17 1 G 2 63° 47% - - 43° 67.9° 58.8° - - -
6/21 5:10am 3 2 G 3 64° 45% - - 43° 67.9° 58.8° - - -
6/21 5:00am 354 4 G 5 61° 52% - - 43° 67.9° 58.8° - - -
6/21 4:50am 1 4 G 4 61° 55% - - 45° 67.9° 59.3° - - -
6/21 4:40am 346 4 G 6 63° 52% - - 45° 67.9° 59.3° - - -
6/21 4:30am 11 3 G 5 64° 50% - - 45° 67.9° 59.3° - - -
6/21 4:20am 360 4 G 7 65° 47% - - 45° 67.8° 59.3° - - -
6/21 4:10am 5 5 G 7 63° 53% - - 46° 67.8° 59.3° - - -
6/21 4:00am 286 2 G 7 65° 49% - - 45° 67.8° 59.3° - - -
6/21 3:50am 10 1 G 3 63° 55% - - 46° 67.8° 59.3° - - -
6/21 3:40am 51 1 G 3 65° 52% - - 47° 67.8° 59.3° - - -
6/21 3:30am 358 3 G 5 62° 57% - - 47° 67.8° 59.3° - - -
6/21 3:20am 358 4 G 5 61° 61% - - 47° 67.8° 59.3° - - -
6/21 3:10am 1 3 G 5 65° 53% - - 47° 67.8° 59.5° - - -
6/21 3:00am 355 3 G 5 61° 62% - - 48° 67.8° 59.5° - - -
6/21 2:50am 353 4 G 6 64° 56% - - 48° 67.8° 60.2° - - -
6/21 2:40am 0 4 G 6 64° 57% - - 48° 67.8° 62.3° - - -
6/21 2:30am 349 5 G 6 64° 57% - - 49° 67.8° 63.2° - - -
6/21 2:20am 5 3 G 6 64° 57% - - 49° 67.8° 63.2° - - -
6/21 2:10am 341 3 G 5 65° 56% - - 49° 67.8° 63.4° - - -
6/21 2:00am 348 2 G 4 65° 58% - - 49° 67.8° 63.4° - - -
6/21 1:50am 349 2 G 3 66° 55% - - 50° 67.8° 63.4° - - -
6/21 1:40am 359 3 G 4 65° 59% - - 50° 67.8° 63.4° - - -
6/21 1:30am 4 4 G 5 65° 60% - - 50° 67.8° 63.4° - - -
6/21 1:20am 348 4 G 5 66° 58% - - 51° 67.8° 63.4° - - -
6/21 1:10am 348 3 G 4 65° 60% - - 51° 67.8° 63.4° - - -
6/21 1:00am 359 2 G 4 66° 57% - - 51° 67.8° 64.9° - - -
6/21 12:50am 353 3 G 4 66° 59% - - 51° 67.8° 64.9° - - -
6/21 12:40am 356 3 G 4 66° 61% - - 52° 67.8° 64.9° - - -
6/21 12:30am 353 3 G 4 67° 59% - - 52° 67.8° 65.2° - - -
6/21 12:20am 354 3 G 5 66° 60% - - 52° 67.7° 65.2° - - -
6/21 12:10am 348 2 G 3 67° 59% - - 52° 67.7° 66° - - -
6/21 12:00am 360 1 G 2 67° 59% - - 52° 97.5° 60.5° - - -
6/20 11:50pm 353 3 G 4 66° 61% - - 52° 97.5° 60.5° - - -
6/20 11:40pm 354 2 G 4 67° 59% - - 52° 97.5° 60.5° - - -
6/20 11:30pm 13 3 G 5 67° 60% - - 52° 97.5° 60.5° - - -
6/20 11:20pm 353 4 G 6 67° 60% - - 53° 97.5° 60.5° - - -
6/20 11:10pm 359 4 G 5 66° 63% - - 53° 97.5° 60.5° - - -
6/20 11:00pm 345 4 G 6 68° 58% - - 53° 97.5° 60.5° - - -
6/20 10:50pm 348 4 G 5 69° 59% - - 54° 97.5° 60.5° - - -
6/20 10:40pm 349 4 G 4 70° 57% - - 54° 97.5° 60.5° - - -
6/20 10:30pm 344 4 G 5 69° 56% - - 53° 97.5° 60.5° - - -
6/20 10:20pm 358 5 G 6 69° 59% - - 54° 97.5° 60.5° - - -
6/20 10:10pm 356 5 G 5 70° 56% - - 54° 97.5° 60.5° - - -
6/20 10:00pm 348 5 G 6 72° 55% - - 55° 97.5° 60.5° - - -
6/20 9:50pm 347 6 G 7 71° 58% - - 55° 97.5° 60.5° - - -
6/20 9:40pm 349 3 G 7 73° 54% - - 55° 97.5° 60.5° - - -
6/20 9:30pm 329 3 G 4 72° 57% - - 56° 97.5° 60.5° - - -
6/20 9:20pm 352 4 G 7 73° 55% - - 56° 97.5° 60.5° - - -
6/20 9:10pm 341 5 G 7 74° 53% - - 56° 97.5° 60.5° - - -
6/20 9:00pm 349 5 G 6 74° 53% - - 56° 97.5° 60.5° - - -
6/20 8:50pm 349 5 G 6 75° 53% - - 56° 97.5° 60.5° - - -
6/20 8:40pm 353 5 G 6 75° 52% - - 57° 97.5° 60.5° - - -
6/20 8:30pm 347 5 G 6 75° 54% - - 57° 97.5° 60.5° - - -
6/20 8:20pm 355 4 G 5 76° 50% - - 57° 97.5° 60.5° - - -
6/20 8:10pm 345 5 G 7 78° 49% - - 57° 97.5° 60.5° - - -
6/20 8:00pm 2 3 G 5 80° 46% - - 57° 97.5° 60.5° - - -
6/20 7:50pm 351 2 G 3 82° 44% - - 57° 97.5° 60.5° - - -
6/20 7:40pm 271 2 G 3 84° 40% - - 56° 97.5° 60.5° - - -
6/20 7:30pm 246 3 G 4 85° 38% - - 56° 97.5° 60.5° - - -
6/20 7:20pm 220 4 G 6 86° 35% - - 56° 97.5° 60.5° - - -
6/20 7:10pm 211 5 G 7 87° 36% - - 56° 97.5° 60.5° - - -
6/20 7:00pm 221 4 G 7 87° 35% - - 56° 97.5° 60.5° - - -
6/20 6:50pm 232 7 G 10 88° 34% - - 56° 97.5° 60.5° - - -
6/20 6:40pm 228 6 G 9 89° 34% - - 56° 97.5° 60.5° - - -
6/20 6:30pm 233 6 G 10 89° 34% - - 56° 97.5° 60.5° - - -
6/20 6:20pm 224 7 G 10 89° 34% - - 57° 97.5° 60.5° - - -
6/20 6:10pm 217 8 G 12 90° 33% - - 57° 97.5° 60.5° - - -
6/20 6:00pm 224 7 G 11 91° 32% - - 57° 97.5° 60.5° - - -